Chitose Air Base, Japan

10:00 PM JST on January 25, 2015 (GMT +0900)
New Chitose | Change Station
CLOSE
Current Station
Airport
Location: Chitose AB,
Elevation: 98 ft
Nearby Weather Stations

Elev 98 ft 42.77 °N, 141.69 °E | Updated 30 minutes ago

Scattered Clouds
Scattered Clouds
23 °F
Feels Like 18 °F
N
4
Wind Variable Wind from SSW

Today
High -- | Low -- °F
--% Chance of Precip.
Yesterday
High -- | Low -- °F
Precip. -- in
6:55 AM 4:36 PM
Waxing Crescent, 32% visible
Pressure 30.36 in
Visibility 6.2 miles
Clouds Few 4000 ft
Scattered Clouds 15000 ft
Windchill 18 °F
Dew Point 18 °F
Humidity 80%
Rainfall 0.00 in
Snow Depth Not available.
UV 0 out of 12
Pollen Not available.
Air Quality Not available.
Flu Activity Not available.
METAR RJCC 251230Z 21003KT 9999 FEW040 SCT150 BKN/// M05/M08 Q1028 RMK 1SC040 4AC150 A3038

More Conditions Fewer Conditions

Pressure 30.36 in
Visibility 6.2 miles
Clouds Few 4000 ft
Scattered Clouds 15000 ft
Windchill 18 °F
Dew Point 18 °F
Humidity 80%
Rainfall 0.00 in
Snow Depth Not available.
UV 0 out of 12
Pollen Not available.
Air Quality Not available.
Flu Activity Not available.
METAR RJCC 251230Z 21003KT 9999 FEW040 SCT150 BKN/// M05/M08 Q1028 RMK 1SC040 4AC150 A3038

More Conditions Fewer Conditions

10-Day Weather Forecast

Almanac

Astronomy

Jan. 25, 2015 Rise Set
Actual Time
Civil Twilight
Nautical Twilight
Astronomical Twilight
Moon
Length of Visible Light
Length of Day
Tomorrow will be .
, % of the Moon is Illuminated

Today's Extremes

Country Highs Country Lows

Community

WunderPhotos

Upload Photos

1,789,876 photos uploaded!

WunderBlogs® & News

Nearby

Air Quality

  Air Quality AQ Index Pollutant
Not available.

Snow Depth

Station Depth Elevation

Earthquake Activity

City Distance Mag. Time & Date
Minimum magnitude displayed is 2.5.

Coastal Water Temperatures

Place Temperature

Nearby Weather Stations